Time;durP1;ratioP1;P1;durP2;ratioP2;P2;SDS_P1;SDS_P2;PMS_P1;PMS_P2;Temp;Humidity;BMP_temperature;BMP_pressure;BME280_temperature;BME280_humidity;BME280_pressure;Samples;Min_cycle;Max_cycle;Signal;HPM_P1;HPM_P2
2022/08/13 00:00:12;;;;;;;2.45;2.25;;;19.80;95.50;;;;;;5042285;28;20503;-60
2022/08/13 00:02:43;;;;;;;3.22;2.83;;;19.70;95.50;;;;;;5043299;28;20036;-60
2022/08/13 00:05:10;;;;;;;3.75;2.60;;;19.70;95.50;;;;;;5040131;28;20036;-58
2022/08/13 00:07:36;;;;;;;2.40;2.20;;;19.70;95.70;;;;;;5047256;28;20025;-60
2022/08/13 00:10:06;;;;;;;2.35;2.15;;;19.60;95.80;;;;;;5041135;28;20036;-59
2022/08/13 00:15:28;;;;;;;2.55;2.35;;;19.60;96.00;;;;;;5051883;28;20136;-61
2022/08/13 00:18:01;;;;;;;2.45;2.25;;;19.50;96.10;;;;;;5048206;28;20142;-61
2022/08/13 00:20:34;;;;;;;3.42;2.45;;;19.50;96.20;;;;;;5052695;28;20029;-60
2022/08/13 00:23:00;;;;;;;2.40;2.20;;;19.50;96.30;;;;;;5049867;28;20029;-59
2022/08/13 00:25:26;;;;;;;3.53;2.50;;;19.40;96.50;;;;;;5053531;28;20044;-61
2022/08/13 00:27:57;;;;;;;5.07;2.38;;;19.40;96.60;;;;;;5051477;28;20131;-60
2022/08/13 00:30:28;;;;;;;2.65;1.98;;;19.40;96.60;;;;;;5054837;28;20040;-58
2022/08/13 00:32:54;;;;;;;3.55;2.25;;;19.40;96.90;;;;;;5040264;28;20041;-62
2022/08/13 00:35:20;;;;;;;2.95;2.65;;;19.40;96.90;;;;;;5055430;28;20068;-60
2022/08/13 00:37:46;;;;;;;2.17;1.85;;;19.30;97.10;;;;;;5047385;28;20059;-60
2022/08/13 00:40:13;;;;;;;4.53;2.20;;;19.30;97.10;;;;;;5053923;28;20076;-59
2022/08/13 00:42:39;;;;;;;4.80;3.25;;;19.30;97.30;;;;;;5044702;28;20111;-61
2022/08/13 00:45:07;;;;;;;3.95;2.40;;;19.20;97.40;;;;;;5043170;28;20107;-61
2022/08/13 00:50:17;;;;;;;3.08;2.78;;;19.20;97.50;;;;;;5038070;28;20647;-61
2022/08/13 00:52:42;;;;;;;2.45;2.25;;;19.20;97.70;;;;;;5056157;28;20033;-60
2022/08/13 00:55:15;;;;;;;2.83;2.53;;;19.10;97.70;;;;;;5047462;28;20044;-60
2022/08/13 00:57:44;;;;;;;2.22;2.03;;;19.10;97.80;;;;;;5041720;28;20631;-58
2022/08/13 01:00:13;;;;;;;4.47;2.40;;;19.00;97.90;;;;;;5040408;28;20040;-59
2022/08/13 01:02:51;;;;;;;2.50;2.22;;;19.00;98.00;;;;;;5050288;28;20024;-60
2022/08/13 01:05:19;;;;;;;4.90;2.20;;;19.00;98.20;;;;;;5051519;28;20304;-60
2022/08/13 01:07:45;;;;;;;2.85;2.05;;;18.90;98.40;;;;;;5043682;28;20021;-57
2022/08/13 01:10:12;;;;;;;3.38;2.40;;;18.90;98.40;;;;;;5052104;28;20056;-60
2022/08/13 01:12:39;;;;;;;5.05;2.20;;;18.90;98.50;;;;;;5051596;28;20049;-60
2022/08/13 01:15:07;;;;;;;2.63;2.42;;;18.80;98.60;;;;;;5051133;28;20502;-60
2022/08/13 01:17:35;;;;;;;4.10;2.40;;;18.80;98.70;;;;;;5051217;28;20081;-59
2022/08/13 01:20:03;;;;;;;2.92;2.10;;;18.70;98.70;;;;;;5047846;28;20017;-60
2022/08/13 01:22:29;;;;;;;3.72;2.47;;;18.70;98.80;;;;;;5048559;28;20399;-60
2022/08/13 01:24:55;;;;;;;2.95;2.40;;;18.70;98.70;;;;;;5054076;28;20176;-59
2022/08/13 01:27:25;;;;;;;2.63;2.28;;;18.60;98.70;;;;;;5051983;28;20078;-59
2022/08/13 01:29:54;;;;;;;2.47;2.28;;;18.60;98.90;;;;;;5051927;28;20021;-60
2022/08/13 01:32:21;;;;;;;2.40;2.20;;;18.60;98.90;;;;;;5042888;28;20028;-60
2022/08/13 01:34:50;;;;;;;2.30;1.88;;;18.50;98.90;;;;;;5052166;28;20241;-61
2022/08/13 01:37:17;;;;;;;5.25;2.40;;;18.60;99.00;;;;;;5052675;28;20099;-62
2022/08/13 01:39:44;;;;;;;2.45;2.25;;;18.50;99.10;;;;;;5047445;28;20044;-61
2022/08/13 01:42:20;;;;;;;4.00;2.40;;;18.40;99.20;;;;;;5048234;28;20082;-60
2022/08/13 01:44:49;;;;;;;4.25;2.35;;;18.40;99.20;;;;;;5047371;28;20025;-60
2022/08/13 01:52:47;;;;;;;2.45;2.25;;;18.20;99.60;;;;;;5050272;28;20081;-60
2022/08/13 01:55:14;;;;;;;3.35;2.40;;;18.10;99.70;;;;;;5045547;28;20087;-61
2022/08/13 01:57:44;;;;;;;4.65;2.60;;;18.00;99.90;;;;;;5061955;28;20029;-61
2022/08/13 02:00:15;;;;;;;2.85;2.65;;;18.00;99.90;;;;;;5049934;28;20029;-61
2022/08/13 02:02:43;;;;;;;4.15;2.90;;;17.90;99.90;;;;;;5057768;28;20039;-59
2022/08/13 02:05:10;;;;;;;2.55;2.35;;;17.90;99.90;;;;;;5056200;28;20123;-60
2022/08/13 02:07:38;;;;;;;2.50;2.30;;;17.80;99.90;;;;;;5057730;28;20399;-60
2022/08/13 02:10:04;;;;;;;3.05;2.30;;;17.80;99.90;;;;;;5050731;28;20112;-61
2022/08/13 02:12:31;;;;;;;2.45;2.25;;;17.70;99.90;;;;;;5055934;28;20025;-61
2022/08/13 02:15:02;;;;;;;2.40;2.20;;;17.70;99.90;;;;;;5054309;28;20035;-60
2022/08/13 02:17:27;;;;;;;2.50;2.30;;;17.60;99.90;;;;;;5052065;28;20075;-60
2022/08/13 02:19:56;;;;;;;5.22;2.85;;;17.60;99.90;;;;;;5058443;28;20025;-60
2022/08/13 02:22:24;;;;;;;3.22;2.60;;;17.60;99.90;;;;;;5051367;28;20529;-61
2022/08/13 02:24:55;;;;;;;4.88;2.83;;;17.60;99.90;;;;;;5056460;28;20025;-61
2022/08/13 02:27:24;;;;;;;4.03;2.33;;;17.50;99.90;;;;;;5051130;28;20078;-61
2022/08/13 02:29:52;;;;;;;2.42;2.22;;;17.50;99.90;;;;;;5044984;28;20017;-60
2022/08/13 02:32:19;;;;;;;3.20;2.88;;;17.50;99.90;;;;;;5048647;28;20021;-62
2022/08/13 02:37:21;;;;;;;2.63;2.30;;;17.40;99.90;;;;;;5010799;28;20045;-56
2022/08/13 02:39:53;;;;;;;5.85;2.88;;;17.30;99.90;;;;;;5010478;28;20030;-56
2022/08/13 02:42:22;;;;;;;2.60;2.40;;;17.30;99.90;;;;;;5018120;28;20420;-58
2022/08/13 02:44:50;;;;;;;2.70;2.35;;;17.30;99.90;;;;;;5013095;28;20119;-58
2022/08/13 02:47:20;;;;;;;2.50;2.30;;;17.30;99.90;;;;;;5009082;28;20113;-56
2022/08/13 02:49:50;;;;;;;3.38;2.35;;;17.20;99.90;;;;;;5005690;28;20101;-55
2022/08/13 02:52:17;;;;;;;4.95;2.38;;;17.20;99.90;;;;;;4995096;28;20022;-54
2022/08/13 02:54:47;;;;;;;4.45;2.53;;;17.20;99.90;;;;;;5006642;28;20041;-57
2022/08/13 02:57:13;;;;;;;3.35;2.25;;;17.10;99.90;;;;;;5008105;28;20029;-58
2022/08/13 02:59:41;;;;;;;2.75;2.55;;;17.10;99.90;;;;;;5007371;28;20427;-57
2022/08/13 03:02:08;;;;;;;4.43;2.70;;;17.10;99.90;;;;;;5003210;28;20026;-59
2022/08/13 03:04:34;;;;;;;3.05;2.75;;;17.00;99.90;;;;;;5006736;28;20025;-58
2022/08/13 03:07:00;;;;;;;3.28;2.38;;;17.00;99.90;;;;;;4997331;28;20022;-56
2022/08/13 03:09:28;;;;;;;2.22;2.13;;;17.00;99.90;;;;;;5001153;28;20452;-56
2022/08/13 03:11:55;;;;;;;2.55;2.35;;;17.00;99.90;;;;;;5008074;28;20388;-56
2022/08/13 03:14:21;;;;;;;4.35;2.40;;;17.00;99.90;;;;;;4999193;28;20382;-56
2022/08/13 03:16:46;;;;;;;7.53;2.92;;;16.90;99.90;;;;;;5000876;28;20073;-58
2022/08/13 03:19:12;;;;;;;3.63;2.55;;;16.90;99.90;;;;;;5007518;28;20485;-55
2022/08/13 03:21:41;;;;;;;4.38;2.80;;;16.80;99.90;;;;;;5005078;28;20037;-59
2022/08/13 03:24:18;;;;;;;3.40;2.50;;;16.80;99.90;;;;;;5007305;28;20035;-52
2022/08/13 03:26:44;;;;;;;2.97;2.75;;;16.80;99.90;;;;;;5004017;28;20103;-55
2022/08/13 03:29:10;;;;;;;3.35;2.60;;;16.70;99.90;;;;;;5005698;28;20029;-58
2022/08/13 03:31:37;;;;;;;2.95;2.65;;;16.70;99.90;;;;;;5007891;28;20528;-58
2022/08/13 03:34:04;;;;;;;2.83;2.63;;;16.70;99.90;;;;;;5005438;28;20045;-56
2022/08/13 03:36:31;;;;;;;2.83;2.63;;;16.70;99.90;;;;;;4999650;28;20034;-53
2022/08/13 03:38:57;;;;;;;3.55;2.42;;;16.60;99.90;;;;;;4997080;28;20034;-57
2022/08/13 03:41:24;;;;;;;3.10;2.80;;;16.60;99.90;;;;;;5004505;28;20032;-56
2022/08/13 03:43:51;;;;;;;2.80;2.55;;;16.60;99.90;;;;;;5001948;28;20076;-56
2022/08/13 03:46:20;;;;;;;2.97;2.72;;;16.50;99.90;;;;;;5006673;28;20018;-58
2022/08/13 03:48:49;;;;;;;3.17;2.50;;;16.50;99.90;;;;;;5006853;28;20489;-57
2022/08/13 03:51:17;;;;;;;2.92;2.42;;;16.50;99.90;;;;;;5007400;28;20026;-56
2022/08/13 03:53:44;;;;;;;3.97;3.22;;;16.50;99.90;;;;;;5001402;28;20022;-58
2022/08/13 03:56:11;;;;;;;3.17;2.28;;;16.50;99.90;;;;;;5009121;28;20548;-54
2022/08/13 03:58:37;;;;;;;2.38;2.17;;;16.40;99.90;;;;;;5001565;28;20025;-54
2022/08/13 04:01:04;;;;;;;7.47;2.47;;;16.40;99.90;;;;;;5001313;28;20030;-57
2022/08/13 04:03:36;;;;;;;2.83;2.63;;;16.40;99.90;;;;;;5007499;28;20105;-54
2022/08/13 04:06:06;;;;;;;2.83;2.63;;;16.40;99.90;;;;;;5004618;28;20445;-53
2022/08/13 04:08:35;;;;;;;3.75;2.60;;;16.40;99.90;;;;;;5001607;28;20034;-55
2022/08/13 04:11:03;;;;;;;2.75;2.35;;;16.40;99.90;;;;;;5004822;28;20022;-52
2022/08/13 04:13:29;;;;;;;2.83;2.53;;;16.30;99.90;;;;;;5005387;28;20022;-55
2022/08/13 04:15:55;;;;;;;3.70;2.75;;;16.30;99.90;;;;;;5001955;28;20500;-58
2022/08/13 04:18:21;;;;;;;3.40;2.95;;;16.30;99.90;;;;;;5000946;28;20036;-56
2022/08/13 04:20:52;;;;;;;3.97;3.03;;;16.30;99.90;;;;;;4998404;28;20054;-57
2022/08/13 04:23:20;;;;;;;2.88;2.38;;;16.30;99.90;;;;;;4988091;28;20038;-58
2022/08/13 04:25:47;;;;;;;2.83;2.63;;;16.30;99.90;;;;;;4999245;28;20088;-57
2022/08/13 04:28:15;;;;;;;3.50;2.47;;;16.30;99.90;;;;;;5004944;28;20592;-55
2022/08/13 04:30:42;;;;;;;6.75;2.78;;;16.30;99.90;;;;;;5003344;28;20029;-55
2022/08/13 04:33:11;;;;;;;2.90;2.67;;;16.30;99.90;;;;;;5000433;28;20033;-57
2022/08/13 04:35:41;;;;;;;3.75;2.97;;;16.30;99.90;;;;;;5004672;28;20052;-56
2022/08/13 04:38:07;;;;;;;4.15;2.60;;;16.30;99.90;;;;;;5000427;28;20117;-56
2022/08/13 04:40:38;;;;;;;8.02;2.70;;;16.30;99.90;;;;;;4999286;28;20041;-57
2022/08/13 04:43:06;;;;;;;4.75;2.63;;;16.30;99.90;;;;;;5006675;28;20107;-59
2022/08/13 04:45:32;;;;;;;2.65;2.45;;;16.30;99.90;;;;;;4998812;28;20461;-56
2022/08/13 04:48:03;;;;;;;2.72;2.53;;;16.30;99.90;;;;;;5002307;28;20097;-55
2022/08/13 04:50:32;;;;;;;2.85;2.55;;;16.30;99.90;;;;;;5000779;28;20025;-57
2022/08/13 04:52:59;;;;;;;3.85;2.25;;;16.30;99.90;;;;;;5000351;28;20091;-56
2022/08/13 04:55:25;;;;;;;2.65;2.45;;;16.30;99.90;;;;;;4998724;28;20120;-58
2022/08/13 04:57:50;;;;;;;2.35;2.15;;;16.30;99.90;;;;;;4995587;28;20133;-58
2022/08/13 05:00:16;;;;;;;3.90;2.50;;;16.30;99.90;;;;;;4997161;28;20436;-57
2022/08/13 05:02:43;;;;;;;2.65;2.45;;;16.30;99.90;;;;;;5006526;28;20109;-55
2022/08/13 05:05:11;;;;;;;2.78;2.58;;;16.40;99.90;;;;;;4999167;28;20157;-57
2022/08/13 05:07:37;;;;;;;2.63;2.42;;;16.30;99.90;;;;;;5001585;28;20434;-56
2022/08/13 05:10:04;;;;;;;2.78;2.58;;;16.40;99.90;;;;;;5000759;28;20026;-58
2022/08/13 05:12:34;;;;;;;3.13;2.38;;;16.40;99.90;;;;;;4995873;28;20049;-56
2022/08/13 05:15:00;;;;;;;4.80;2.50;;;16.50;99.90;;;;;;5000534;28;20077;-56
2022/08/13 05:17:26;;;;;;;3.70;2.58;;;16.50;99.90;;;;;;4999752;28;20429;-58
2022/08/13 05:19:52;;;;;;;3.42;2.58;;;16.50;99.90;;;;;;5001109;28;20033;-55
2022/08/13 05:22:19;;;;;;;2.85;2.65;;;16.60;99.90;;;;;;5002275;28;20477;-59
2022/08/13 05:24:45;;;;;;;3.28;2.38;;;16.60;99.90;;;;;;5004713;28;20026;-56
2022/08/13 05:27:13;;;;;;;2.80;2.60;;;16.60;99.90;;;;;;5005768;28;20417;-55
2022/08/13 05:29:39;;;;;;;3.00;2.58;;;16.70;99.90;;;;;;4996824;28;20019;-58
2022/08/13 05:32:05;;;;;;;4.00;2.38;;;16.80;99.90;;;;;;5008260;28;20040;-58
2022/08/13 05:34:31;;;;;;;3.55;2.67;;;16.80;99.90;;;;;;5006087;28;20030;-57
2022/08/13 05:36:58;;;;;;;3.67;2.33;;;16.80;99.90;;;;;;5009516;28;20362;-57
2022/08/13 05:39:23;;;;;;;2.70;2.50;;;16.90;99.90;;;;;;5004191;28;20178;-57
2022/08/13 05:41:49;;;;;;;5.85;2.67;;;17.00;99.90;;;;;;4996587;28;20034;-58
2022/08/13 05:44:15;;;;;;;3.22;2.50;;;17.10;99.90;;;;;;5008858;28;20444;-52
2022/08/13 05:46:41;;;;;;;3.58;2.17;;;17.20;99.90;;;;;;5007177;28;20014;-57
2022/08/13 05:49:08;;;;;;;3.35;2.42;;;17.30;99.90;;;;;;5002874;28;20077;-55
2022/08/13 05:51:33;;;;;;;2.85;2.25;;;17.40;99.90;;;;;;5004029;28;20022;-57
2022/08/13 05:54:01;;;;;;;2.92;2.55;;;17.50;99.90;;;;;;5004100;28;20030;-58
2022/08/13 05:56:37;;;;;;;2.60;2.10;;;17.60;99.90;;;;;;5004495;28;20120;-58
2022/08/13 06:03:22;;;;;;;4.80;2.45;;;17.70;99.90;;;;;;5002760;28;20096;-58
2022/08/13 06:04:38;;;;;;;2.60;2.40;;;17.90;99.90;;;;;;4990452;28;20440;-56
2022/08/13 06:07:04;;;;;;;2.42;2.22;;;18.10;99.90;;;;;;5004400;28;20030;-59
2022/08/13 06:09:29;;;;;;;2.95;2.50;;;18.20;99.90;;;;;;5002686;28;20109;-58
2022/08/13 06:11:59;;;;;;;2.00;1.90;;;18.30;99.90;;;;;;5003365;28;20129;-56
2022/08/13 06:14:25;;;;;;;2.92;2.38;;;18.40;99.90;;;;;;5002099;28;20026;-58
2022/08/13 06:16:51;;;;;;;4.32;2.47;;;18.40;99.90;;;;;;5001268;28;20028;-58
2022/08/13 06:19:20;;;;;;;3.50;2.33;;;18.50;99.90;;;;;;5004066;28;20032;-57
2022/08/13 06:21:48;;;;;;;3.63;2.63;;;18.70;99.90;;;;;;5002946;28;20142;-56
2022/08/13 06:24:14;;;;;;;4.78;2.95;;;18.70;99.90;;;;;;4998852;28;20025;-55
2022/08/13 06:26:40;;;;;;;2.67;2.47;;;18.90;99.90;;;;;;5005362;28;20121;-56
2022/08/13 06:29:07;;;;;;;3.88;2.65;;;19.10;99.90;;;;;;5004503;28;20109;-59
2022/08/13 06:31:35;;;;;;;2.38;1.95;;;19.20;99.90;;;;;;5006688;28;20026;-57
2022/08/13 06:34:01;;;;;;;2.05;1.95;;;19.30;99.90;;;;;;5004004;28;20030;-58
2022/08/13 06:36:31;;;;;;;3.63;2.25;;;19.40;99.90;;;;;;5006906;28;20041;-57
2022/08/13 06:39:03;;;;;;;3.72;2.25;;;19.60;99.90;;;;;;5000941;28;20030;-56
2022/08/13 06:41:31;;;;;;;4.28;2.10;;;19.80;99.90;;;;;;4996344;28;20034;-55
2022/08/13 06:43:57;;;;;;;4.40;1.85;;;19.90;99.90;;;;;;5005854;28;20038;-58
2022/08/13 06:46:29;;;;;;;2.40;2.20;;;20.10;99.90;;;;;;5006290;28;20019;-58
2022/08/13 06:49:03;;;;;;;3.75;2.10;;;20.30;99.90;;;;;;5006724;28;20029;-58
2022/08/13 06:51:29;;;;;;;4.70;2.45;;;20.40;99.90;;;;;;5006423;28;20469;-57
2022/08/13 06:53:55;;;;;;;4.18;2.10;;;20.60;99.90;;;;;;5009870;28;20033;-57
2022/08/13 06:56:26;;;;;;;6.53;2.58;;;20.70;99.90;;;;;;5006548;28;20022;-56
2022/08/13 06:58:53;;;;;;;3.10;2.40;;;20.90;99.90;;;;;;5008790;28;20109;-57
2022/08/13 07:01:23;;;;;;;2.20;2.00;;;21.10;99.90;;;;;;5008087;28;20018;-56
2022/08/13 07:03:49;;;;;;;4.25;2.05;;;21.30;99.90;;;;;;5002752;28;20109;-59
2022/08/13 07:06:17;;;;;;;4.22;2.33;;;21.50;99.90;;;;;;5006236;28;20500;-56
2022/08/13 07:08:43;;;;;;;3.67;2.47;;;21.70;99.90;;;;;;5008784;28;20033;-57
2022/08/13 07:11:22;;;;;;;2.35;2.15;;;21.90;99.90;;;;;;5004900;28;20037;-57
2022/08/13 07:13:49;;;;;;;2.20;2.00;;;22.10;98.30;;;;;;5008345;28;20029;-58
2022/08/13 07:16:17;;;;;;;5.13;2.00;;;22.30;99.10;;;;;;5010066;28;20022;-59
2022/08/13 07:18:46;;;;;;;2.15;1.95;;;22.50;98.10;;;;;;5007056;28;20057;-54
2022/08/13 07:21:13;;;;;;;2.30;2.10;;;22.70;97.70;;;;;;5008539;28;20101;-59
2022/08/13 07:23:40;;;;;;;3.15;2.20;;;22.90;98.20;;;;;;5002041;28;20609;-57
2022/08/13 07:26:07;;;;;;;13.00;11.00;;;23.20;97.40;;;;;;5009337;28;20025;-57
2022/08/13 07:28:34;;;;;;;15.85;9.48;;;23.50;97.80;;;;;;5000491;28;20029;-58
2022/08/13 07:31:06;;;;;;;5.13;2.92;;;23.70;97.30;;;;;;4997981;28;20088;-57
2022/08/13 07:33:37;;;;;;;6.32;2.63;;;23.90;95.20;;;;;;5001992;28;20040;-57
2022/08/13 07:36:05;;;;;;;2.80;2.08;;;24.10;95.80;;;;;;5003242;28;20129;-54
2022/08/13 07:38:31;;;;;;;1.85;1.48;;;24.30;94.60;;;;;;5004922;28;20030;-58
2022/08/13 07:41:00;;;;;;;2.22;1.90;;;24.50;94.30;;;;;;5004916;28;20527;-57
2022/08/13 07:43:27;;;;;;;2.45;2.13;;;24.70;94.30;;;;;;5003656;28;20112;-59
2022/08/13 07:46:10;;;;;;;3.67;1.95;;;25.00;94.00;;;;;;4996599;28;20080;-56
2022/08/13 07:48:37;;;;;;;3.03;1.90;;;25.20;92.50;;;;;;5008965;28;20018;-58
2022/08/13 07:51:06;;;;;;;3.05;1.75;;;25.50;91.50;;;;;;5001960;28;20370;-58
2022/08/13 07:53:35;;;;;;;1.95;1.77;;;25.70;91.70;;;;;;5001203;28;20412;-58
2022/08/13 07:56:03;;;;;;;2.65;1.55;;;26.00;91.50;;;;;;5003983;28;20025;-57
2022/08/13 07:58:33;;;;;;;2.33;1.88;;;26.20;90.00;;;;;;4999595;28;20026;-55
2022/08/13 08:00:59;;;;;;;5.68;2.20;;;26.50;87.90;;;;;;4994195;28;20034;-58
2022/08/13 08:03:30;;;;;;;3.30;1.73;;;26.80;87.40;;;;;;5007292;28;20045;-57
2022/08/13 08:05:57;;;;;;;4.78;2.05;;;27.00;87.30;;;;;;5003167;28;20033;-57
2022/08/13 08:08:25;;;;;;;2.17;1.80;;;27.30;86.30;;;;;;5007505;28;20026;-58
2022/08/13 08:10:51;;;;;;;2.08;1.85;;;27.50;87.10;;;;;;5003862;28;20101;-58
2022/08/13 08:13:17;;;;;;;3.65;1.95;;;27.80;85.90;;;;;;5006175;28;20068;-57
2022/08/13 08:15:43;;;;;;;2.75;1.70;;;28.00;83.10;;;;;;5002983;28;20033;-56
2022/08/13 08:18:09;;;;;;;1.75;1.65;;;28.20;80.50;;;;;;5006131;28;20416;-58
2022/08/13 08:20:34;;;;;;;2.45;1.60;;;28.40;79.40;;;;;;4999411;28;20642;-57
2022/08/13 08:23:00;;;;;;;1.63;1.52;;;28.60;78.20;;;;;;5003558;28;20033;-59
2022/08/13 08:25:26;;;;;;;1.95;1.85;;;28.70;79.00;;;;;;5007682;28;20455;-59
2022/08/13 08:27:51;;;;;;;6.68;1.77;;;28.90;78.40;;;;;;5003174;28;20028;-59
2022/08/13 08:30:20;;;;;;;3.92;1.50;;;29.10;75.50;;;;;;5002079;28;20444;-59
2022/08/13 08:32:53;;;;;;;5.35;1.90;;;29.20;75.60;;;;;;5003553;28;20025;-58
2022/08/13 08:43:32;;;;;;;2.92;1.75;;;29.50;72.10;;;;;;5018980;28;20084;-50
2022/08/13 08:45:59;;;;;;;1.83;1.42;;;29.50;71.10;;;;;;5008387;28;20449;-50
2022/08/13 08:48:29;;;;;;;1.50;1.33;;;29.70;72.50;;;;;;5035820;28;20017;-51
2022/08/13 08:50:56;;;;;;;2.42;1.75;;;29.90;73.00;;;;;;5027924;28;20018;-52
2022/08/13 08:53:23;;;;;;;3.10;1.60;;;30.10;71.40;;;;;;5029228;28;20044;-53
2022/08/13 08:55:51;;;;;;;1.05;1.02;;;30.20;70.60;;;;;;5032213;28;20014;-51
2022/08/13 08:58:18;;;;;;;4.32;1.45;;;30.20;69.50;;;;;;5027501;28;20025;-50
2022/08/13 09:00:45;;;;;;;2.53;1.67;;;30.30;70.00;;;;;;5029364;28;20456;-55
2022/08/13 09:03:11;;;;;;;2.97;1.95;;;30.30;69.30;;;;;;5031163;28;20072;-50
2022/08/13 09:05:36;;;;;;;2.08;1.77;;;30.20;69.60;;;;;;5027127;28;20057;-54
2022/08/13 09:08:06;;;;;;;3.00;1.40;;;30.10;67.40;;;;;;5036429;28;20033;-53
2022/08/13 09:10:34;;;;;;;1.65;1.50;;;30.20;67.20;;;;;;5023895;28;20025;-48
2022/08/13 09:13:02;;;;;;;2.20;1.38;;;30.30;67.90;;;;;;5033573;28;20502;-50
2022/08/13 09:15:30;;;;;;;4.38;1.67;;;30.30;68.50;;;;;;5029623;28;20440;-52
2022/08/13 09:17:58;;;;;;;1.48;1.38;;;30.30;67.00;;;;;;5034326;28;20107;-51
2022/08/13 09:20:28;;;;;;;3.88;1.45;;;30.30;66.80;;;;;;5033772;28;20021;-51
2022/08/13 09:23:01;;;;;;;1.80;1.42;;;30.40;66.60;;;;;;5031202;28;20028;-51
2022/08/13 09:25:27;;;;;;;1.73;1.55;;;30.50;67.00;;;;;;5032604;28;20025;-55
2022/08/13 09:27:53;;;;;;;1.40;1.30;;;30.50;67.40;;;;;;5031702;28;20476;-55
2022/08/13 09:30:19;;;;;;;1.52;1.35;;;30.60;67.50;;;;;;5035393;28;20033;-55
2022/08/13 09:32:46;;;;;;;1.42;1.33;;;30.60;67.00;;;;;;5031364;28;20512;-55
2022/08/13 09:35:12;;;;;;;2.55;1.70;;;30.60;66.80;;;;;;5029420;28;20021;-56
2022/08/13 09:37:39;;;;;;;1.35;1.23;;;30.60;66.90;;;;;;5026529;28;20683;-58
2022/08/13 09:40:12;;;;;;;3.10;1.75;;;30.60;66.70;;;;;;5030014;28;20112;-55
2022/08/13 09:43:06;;;;;;;4.55;1.80;;;30.50;66.90;;;;;;5020269;28;20519;-55
2022/08/13 09:45:34;;;;;;;1.65;1.40;;;30.60;67.20;;;;;;5024397;28;20079;-56
2022/08/13 09:48:02;;;;;;;3.40;1.92;;;30.70;67.30;;;;;;5030990;28;20454;-53
2022/08/13 09:50:28;;;;;;;18.05;3.47;;;30.60;66.10;;;;;;5035678;28;20372;-57
2022/08/13 09:52:55;;;;;;;6.60;1.98;;;30.60;65.80;;;;;;5026112;28;20024;-54
2022/08/13 09:55:24;;;;;;;4.97;1.80;;;30.50;65.80;;;;;;5031703;28;20510;-53
2022/08/13 09:57:59;;;;;;;4.00;1.92;;;30.50;66.70;;;;;;5030107;28;20036;-52
2022/08/13 10:00:27;;;;;;;1.50;1.40;;;30.50;65.40;;;;;;5032438;28;20344;-55
2022/08/13 10:02:59;;;;;;;2.58;1.33;;;30.50;65.70;;;;;;5029659;28;20036;-49
2022/08/13 10:05:35;;;;;;;3.08;1.73;;;30.50;65.80;;;;;;5026392;28;20400;-53
2022/08/13 10:08:02;;;;;;;8.05;1.67;;;30.50;65.00;;;;;;5024960;28;20021;-57
2022/08/13 10:10:28;;;;;;;3.30;1.95;;;30.50;65.80;;;;;;5017407;28;20022;-60
2022/08/13 10:12:54;;;;;;;2.40;1.52;;;30.50;66.50;;;;;;5023114;28;20111;-55
2022/08/13 10:15:20;;;;;;;2.00;1.90;;;30.50;66.00;;;;;;5028452;28;20029;-56
2022/08/13 10:17:58;;;;;;;3.28;1.83;;;30.50;64.50;;;;;;5032141;28;20498;-52
2022/08/13 10:20:33;;;;;;;2.90;2.00;;;30.30;63.90;;;;;;5036738;28;20018;-50
2022/08/13 10:23:00;;;;;;;2.58;1.83;;;30.20;64.20;;;;;;5030359;28;20079;-57
2022/08/13 10:25:27;;;;;;;2.38;2.00;;;30.10;66.00;;;;;;5037029;28;20053;-48
2022/08/13 10:27:54;;;;;;;4.95;2.22;;;30.00;65.00;;;;;;5028860;28;20021;-54
2022/08/13 10:30:24;;;;;;;2.95;1.85;;;30.00;65.30;;;;;;5036015;28;20021;-52
2022/08/13 10:32:54;;;;;;;2.22;1.98;;;30.10;66.00;;;;;;5040064;28;20022;-54
2022/08/13 10:35:21;;;;;;;2.08;1.88;;;30.00;65.90;;;;;;5035201;28;20108;-50
2022/08/13 10:37:53;;;;;;;3.35;1.77;;;30.10;65.90;;;;;;5037397;28;20037;-51
2022/08/13 10:40:20;;;;;;;2.42;1.80;;;30.10;65.90;;;;;;5030261;28;20517;-56
2022/08/13 10:42:46;;;;;;;3.47;2.00;;;30.10;66.20;;;;;;5033576;28;20483;-51
2022/08/13 10:45:13;;;;;;;3.05;2.10;;;30.10;66.70;;;;;;5027595;28;20075;-52
2022/08/13 10:47:50;;;;;;;2.20;1.83;;;30.20;66.10;;;;;;5033276;28;20067;-51
2022/08/13 10:50:18;;;;;;;2.17;1.77;;;30.20;65.80;;;;;;5040436;28;20044;-54
2022/08/13 10:52:44;;;;;;;3.75;2.00;;;30.20;66.00;;;;;;5030457;28;20124;-54
2022/08/13 10:55:12;;;;;;;2.80;2.10;;;30.20;65.80;;;;;;5037591;28;20048;-52
2022/08/13 10:57:45;;;;;;;2.40;1.98;;;30.20;65.70;;;;;;5033824;28;20033;-55
2022/08/13 11:00:14;;;;;;;3.38;2.20;;;30.20;65.60;;;;;;5034875;28;20033;-50
2022/08/13 11:02:40;;;;;;;2.53;1.85;;;30.20;65.20;;;;;;5031387;28;20029;-53
2022/08/13 11:05:08;;;;;;;10.68;2.33;;;30.10;65.40;;;;;;5028431;28;20429;-50
2022/08/13 11:07:36;;;;;;;3.90;2.10;;;30.10;65.70;;;;;;5030706;28;20025;-56
2022/08/13 11:10:07;;;;;;;2.17;2.03;;;30.00;66.70;;;;;;5030900;28;20021;-51
2022/08/13 11:12:42;;;;;;;2.38;2.17;;;30.00;66.30;;;;;;5027962;28;20039;-50
2022/08/13 11:15:08;;;;;;;;;;;30.00;66.10;;;;;;5038716;28;20059;-56
2022/08/13 11:17:34;;;;;;;2.28;2.08;;;29.90;66.30;;;;;;5029733;28;19906;-55
2022/08/13 11:20:06;;;;;;;2.33;2.05;;;29.80;66.20;;;;;;5038122;28;20036;-59
2022/08/13 11:22:32;;;;;;;3.80;2.47;;;29.80;66.60;;;;;;5027599;28;20382;-54
2022/08/13 11:25:00;;;;;;;2.40;2.20;;;29.80;67.00;;;;;;5036349;28;20087;-53
2022/08/13 11:27:26;;;;;;;3.53;2.10;;;29.90;67.30;;;;;;5029424;28;20032;-49
2022/08/13 11:29:55;;;;;;;2.92;2.15;;;30.00;66.20;;;;;;5035025;28;20028;-51
2022/08/13 11:32:21;;;;;;;4.57;3.08;;;30.10;66.00;;;;;;5035148;28;20029;-56
2022/08/13 11:34:47;;;;;;;3.28;2.65;;;30.20;65.60;;;;;;5032517;28;20029;-56
2022/08/13 11:37:12;;;;;;;5.10;2.58;;;30.10;65.70;;;;;;5035990;28;20033;-52
2022/08/13 11:39:38;;;;;;;3.10;2.80;;;30.10;65.90;;;;;;5027499;28;20037;-49
2022/08/13 11:42:04;;;;;;;4.45;2.88;;;30.10;66.20;;;;;;5030428;28;20064;-54
2022/08/13 11:44:29;;;;;;;2.70;2.50;;;30.10;65.30;;;;;;5020739;28;20112;-51
2022/08/13 11:46:55;;;;;;;3.75;2.30;;;30.10;66.60;;;;;;5029404;28;20699;-55
2022/08/13 11:49:21;;;;;;;3.45;2.55;;;30.10;66.50;;;;;;5028845;28;20041;-50
2022/08/13 11:51:47;;;;;;;4.88;2.78;;;30.10;66.70;;;;;;5025205;28;20040;-53
2022/08/13 11:54:13;;;;;;;5.55;2.63;;;30.20;66.60;;;;;;5028292;28;20033;-52
2022/08/13 11:56:39;;;;;;;5.82;3.63;;;30.30;66.10;;;;;;5020840;28;20492;-56
2022/08/13 11:59:04;;;;;;;5.30;3.38;;;30.30;66.60;;;;;;5021493;28;20165;-50
2022/08/13 12:01:30;;;;;;;5.85;3.33;;;30.40;66.60;;;;;;5028425;28;20056;-49
2022/08/13 12:03:56;;;;;;;9.77;2.83;;;30.50;65.50;;;;;;5035367;28;20021;-54
2022/08/13 12:06:22;;;;;;;4.07;3.38;;;30.50;65.90;;;;;;5028652;28;20033;-57
2022/08/13 12:08:47;;;;;;;4.25;3.25;;;30.50;66.00;;;;;;5029875;28;20025;-57
2022/08/13 12:11:13;;;;;;;3.75;3.05;;;30.60;66.90;;;;;;5025122;28;20053;-57
2022/08/13 12:13:38;;;;;;;3.08;2.80;;;30.70;66.60;;;;;;5033864;28;20130;-56
2022/08/13 12:16:04;;;;;;;3.40;3.20;;;30.80;66.10;;;;;;5039058;28;20510;-57
2022/08/13 12:18:30;;;;;;;3.25;2.92;;;30.90;66.40;;;;;;5033712;28;20104;-55
2022/08/13 12:20:56;;;;;;;3.05;2.85;;;31.00;66.00;;;;;;5035897;28;20060;-56
2022/08/13 12:23:22;;;;;;;5.55;3.80;;;31.00;66.10;;;;;;5027177;28;20033;-53
2022/08/13 12:25:47;;;;;;;3.30;2.92;;;31.00;65.50;;;;;;5020173;28;20556;-53
2022/08/13 12:28:22;;;;;;;3.47;3.22;;;30.90;66.00;;;;;;5018490;28;20034;-54
2022/08/13 12:30:50;;;;;;;3.55;3.25;;;30.80;67.10;;;;;;5020479;28;20087;-55
2022/08/13 12:33:17;;;;;;;4.65;3.08;;;30.90;66.30;;;;;;5027067;28;20032;-54
2022/08/13 12:35:43;;;;;;;3.67;3.33;;;30.90;66.30;;;;;;5020591;28;20488;-56
2022/08/13 12:38:12;;;;;;;3.55;3.25;;;30.90;66.40;;;;;;5020135;28;20084;-51
2022/08/13 12:40:38;;;;;;;3.03;2.70;;;30.90;66.00;;;;;;5017398;28;20076;-52
2022/08/13 12:43:05;;;;;;;7.05;3.47;;;30.80;66.00;;;;;;5023952;28;20062;-49
2022/08/13 12:45:31;;;;;;;5.40;3.63;;;30.80;66.10;;;;;;5017396;28;20021;-55
2022/08/13 12:48:08;;;;;;;4.70;3.42;;;30.80;66.50;;;;;;5025893;28;20091;-53
2022/08/13 12:50:34;;;;;;;11.95;3.95;;;30.90;66.80;;;;;;5022194;28;20026;-51
2022/08/13 12:53:00;;;;;;;3.28;2.90;;;30.90;65.90;;;;;;5015693;28;20106;-54
2022/08/13 12:55:26;;;;;;;4.78;3.45;;;31.00;66.70;;;;;;5017072;28;20025;-49
2022/08/13 12:57:52;;;;;;;3.90;3.10;;;31.20;66.20;;;;;;5017396;28;20060;-49
2022/08/13 13:00:18;;;;;;;3.45;3.25;;;31.20;66.40;;;;;;5017884;28;20029;-52
2022/08/13 13:02:44;;;;;;;3.20;2.88;;;31.10;65.90;;;;;;5035336;28;20036;-54
2022/08/13 13:05:10;;;;;;;5.95;2.53;;;30.90;66.80;;;;;;5027484;28;20018;-53
2022/08/13 13:07:35;;;;;;;4.38;2.90;;;30.80;66.70;;;;;;5033044;28;20370;-50
2022/08/13 13:10:02;;;;;;;3.05;2.50;;;30.70;67.30;;;;;;5029318;28;20056;-53
2022/08/13 13:12:28;;;;;;;5.45;2.40;;;30.60;67.10;;;;;;5029427;28;20022;-57
2022/08/13 13:14:54;;;;;;;2.95;2.72;;;30.50;67.50;;;;;;5038350;28;20104;-54